Time;durP1;ratioP1;P1;durP2;ratioP2;P2;SDS_P1;SDS_P2;PMS_P1;PMS_P2;Temp;Humidity;BMP_temperature;BMP_pressure;BME280_temperature;BME280_humidity;BME280_pressure;Samples;Min_cycle;Max_cycle;Signal;HPM_P1;HPM_P2
2022/07/12 00:01:39;;;;;;;3.40;3.10;;;22.10;87.90;;;;;;5014719;28;20185;-75
2022/07/12 00:04:05;;;;;;;3.73;3.43;;;22.10;88.00;;;;;;5009899;28;20216;-76
2022/07/12 00:06:30;;;;;;;4.57;3.43;;;22.10;88.40;;;;;;5012543;28;20185;-76
2022/07/12 00:08:56;;;;;;;7.10;3.70;;;22.10;88.70;;;;;;5016249;28;20197;-76
2022/07/12 00:11:22;;;;;;;3.97;3.60;;;22.10;88.90;;;;;;5015627;28;20181;-75
2022/07/12 00:13:47;;;;;;;5.77;3.90;;;22.10;89.30;;;;;;5014782;28;20208;-77
2022/07/12 00:16:13;;;;;;;4.20;3.80;;;22.10;89.30;;;;;;5012553;28;20180;-78
2022/07/12 00:18:39;;;;;;;5.57;3.53;;;22.00;89.60;;;;;;5011768;28;20185;-80
2022/07/12 00:21:05;;;;;;;4.97;3.67;;;21.90;90.00;;;;;;5014258;28;20189;-79
2022/07/12 00:23:31;;;;;;;6.03;4.33;;;21.90;90.20;;;;;;5011471;28;20486;-77
2022/07/12 00:25:56;;;;;;;4.50;4.10;;;21.80;90.50;;;;;;5013917;28;20530;-79
2022/07/12 00:28:22;;;;;;;3.80;3.50;;;21.80;90.60;;;;;;5012242;28;20459;-78
2022/07/12 00:30:47;;;;;;;4.67;4.27;;;21.80;90.70;;;;;;5010350;28;20183;-79
2022/07/12 00:33:13;;;;;;;3.50;3.20;;;21.70;90.80;;;;;;5011556;28;20196;-79
2022/07/12 00:35:38;;;;;;;5.13;3.90;;;21.70;91.00;;;;;;5010552;28;21188;-78
2022/07/12 00:38:04;;;;;;;3.97;3.53;;;21.70;91.20;;;;;;5013665;28;20212;-77
2022/07/12 00:40:29;;;;;;;6.53;3.80;;;21.70;91.50;;;;;;5011822;28;20188;-77
2022/07/12 00:42:55;;;;;;;4.60;4.20;;;21.60;91.60;;;;;;5014087;28;20183;-78
2022/07/12 00:45:21;;;;;;;3.80;3.40;;;21.60;91.90;;;;;;5012552;28;21323;-76
2022/07/12 00:47:49;;;;;;;3.90;3.50;;;21.50;92.30;;;;;;5009835;28;20177;-77
2022/07/12 00:50:17;;;;;;;5.73;3.87;;;21.50;92.60;;;;;;4992854;28;20176;-77
2022/07/12 00:52:44;;;;;;;4.00;3.60;;;21.50;92.70;;;;;;5010007;28;20436;-76
2022/07/12 00:55:11;;;;;;;3.77;3.33;;;21.50;92.90;;;;;;5007880;28;20972;-77
2022/07/12 00:57:38;;;;;;;3.90;3.60;;;21.50;93.00;;;;;;5010276;28;20468;-77
2022/07/12 01:00:07;;;;;;;4.50;4.10;;;21.40;93.30;;;;;;5012842;28;20427;-77
2022/07/12 01:02:34;;;;;;;3.83;3.53;;;21.40;93.40;;;;;;4999081;28;20813;-76
2022/07/12 01:05:00;;;;;;;3.43;3.13;;;21.50;93.60;;;;;;5008247;28;20474;-77
2022/07/12 01:07:26;;;;;;;3.70;3.40;;;21.40;93.80;;;;;;5000972;28;20823;-77
2022/07/12 01:09:55;;;;;;;3.70;3.20;;;21.40;94.20;;;;;;5010380;28;20546;-77
2022/07/12 01:12:23;;;;;;;3.60;3.30;;;21.40;94.30;;;;;;5012225;28;20598;-79
2022/07/12 01:14:50;;;;;;;3.47;3.17;;;21.40;94.40;;;;;;5009548;28;20462;-77
2022/07/12 01:17:20;;;;;;;4.20;3.80;;;21.40;94.60;;;;;;5017948;28;20535;-77
2022/07/12 01:19:47;;;;;;;5.10;4.03;;;21.40;94.80;;;;;;5020071;28;20458;-78
2022/07/12 01:22:15;;;;;;;3.63;3.33;;;21.30;94.90;;;;;;5017936;28;20445;-79
2022/07/12 01:24:41;;;;;;;4.63;3.87;;;21.30;95.10;;;;;;5008920;28;20467;-79
2022/07/12 01:27:07;;;;;;;3.30;3.00;;;21.30;95.40;;;;;;5010810;28;20444;-79
2022/07/12 01:29:33;;;;;;;3.43;3.13;;;21.30;95.90;;;;;;5012119;28;22527;-79
2022/07/12 01:34:50;;;;;;;3.63;3.30;;;21.20;95.90;;;;;;5012691;28;20200;-78
2022/07/12 01:37:16;;;;;;;3.53;3.23;;;21.30;96.10;;;;;;5012776;28;20435;-79
2022/07/12 01:39:43;;;;;;;3.70;3.40;;;21.20;96.20;;;;;;5008722;28;20508;-79
2022/07/12 01:42:09;;;;;;;4.53;3.70;;;21.20;96.20;;;;;;5011786;28;20971;-79
2022/07/12 01:44:35;;;;;;;3.63;3.20;;;21.20;96.30;;;;;;5012725;28;20466;-79
2022/07/12 01:47:00;;;;;;;4.10;3.70;;;21.20;96.60;;;;;;5015321;28;20177;-79
2022/07/12 01:49:26;;;;;;;3.63;3.33;;;21.20;96.90;;;;;;5011405;28;20968;-78
2022/07/12 01:51:54;;;;;;;3.83;3.43;;;21.20;96.90;;;;;;5015514;28;20250;-78
2022/07/12 01:54:20;;;;;;;4.77;3.30;;;21.20;97.00;;;;;;5010104;28;20247;-77
2022/07/12 01:56:45;;;;;;;3.63;3.30;;;21.10;97.30;;;;;;5012287;28;20439;-78
2022/07/12 01:59:11;;;;;;;5.83;3.97;;;21.20;97.30;;;;;;5008900;28;20654;-78
2022/07/12 02:01:38;;;;;;;4.03;3.40;;;21.20;97.50;;;;;;5012172;28;20184;-77
2022/07/12 02:04:04;;;;;;;4.03;3.70;;;21.20;97.40;;;;;;5016955;28;20251;-77
2022/07/12 02:06:30;;;;;;;3.97;3.57;;;21.10;97.30;;;;;;5011926;28;20446;-76
2022/07/12 02:08:56;;;;;;;6.70;3.60;;;21.10;97.60;;;;;;5011232;28;20837;-76
2022/07/12 02:11:22;;;;;;;4.77;3.80;;;21.00;97.70;;;;;;5012748;28;20432;-76
2022/07/12 02:13:47;;;;;;;4.87;3.57;;;21.00;98.00;;;;;;5013801;28;20209;-77
2022/07/12 02:16:13;;;;;;;6.23;4.50;;;21.00;98.10;;;;;;5010203;28;20192;-78
2022/07/12 02:18:38;;;;;;;4.20;3.80;;;21.00;98.20;;;;;;5008951;28;20800;-78
2022/07/12 02:21:04;;;;;;;3.47;3.17;;;21.00;98.60;;;;;;5006322;28;20208;-79
2022/07/12 02:23:30;;;;;;;3.50;3.20;;;20.90;98.30;;;;;;5008249;28;20261;-78
2022/07/12 02:25:55;;;;;;;4.27;3.87;;;20.90;98.60;;;;;;5008825;28;20331;-78
2022/07/12 02:28:21;;;;;;;4.23;3.83;;;20.90;98.70;;;;;;5015180;28;20196;-79
2022/07/12 02:30:46;;;;;;;3.70;3.40;;;20.80;98.90;;;;;;5009966;28;20188;-79
2022/07/12 02:33:15;;;;;;;3.37;3.07;;;20.80;99.00;;;;;;5011796;28;20227;-78
2022/07/12 02:35:41;;;;;;;4.30;4.00;;;20.80;99.40;;;;;;4995950;28;20173;-79
2022/07/12 02:38:07;;;;;;;3.53;3.23;;;20.70;99.30;;;;;;5007825;28;20518;-79
2022/07/12 02:43:17;;;;;;;4.90;3.67;;;20.70;99.80;;;;;;5011291;28;20357;-78
2022/07/12 02:45:42;;;;;;;3.80;3.47;;;20.60;99.80;;;;;;5009927;28;20818;-79
2022/07/12 02:48:10;;;;;;;4.77;3.40;;;20.60;99.90;;;;;;5011368;28;20212;-79
2022/07/12 02:50:37;;;;;;;4.00;3.60;;;20.60;99.90;;;;;;5012265;28;20177;-79
2022/07/12 02:53:03;;;;;;;10.40;3.60;;;20.60;99.90;;;;;;5007834;28;20550;-79
2022/07/12 02:55:28;;;;;;;3.83;3.53;;;20.60;99.90;;;;;;5012607;28;20952;-79
2022/07/12 02:57:54;;;;;;;3.73;3.40;;;20.50;99.90;;;;;;5011820;28;20440;-79
2022/07/12 03:00:20;;;;;;;4.03;3.40;;;20.40;99.90;;;;;;4990321;28;20268;-78
2022/07/12 03:02:45;;;;;;;3.30;3.00;;;20.40;99.90;;;;;;5011419;28;20176;-78
2022/07/12 03:05:11;;;;;;;3.93;3.50;;;20.40;99.90;;;;;;5009425;28;20204;-78
2022/07/12 03:07:37;;;;;;;4.50;4.10;;;20.40;99.90;;;;;;5008346;28;20184;-77
2022/07/12 03:10:03;;;;;;;4.27;3.90;;;20.40;99.90;;;;;;5016463;28;20191;-78
2022/07/12 03:12:29;;;;;;;4.70;3.77;;;20.40;99.90;;;;;;4991394;28;20272;-77
2022/07/12 03:14:55;;;;;;;3.87;3.57;;;20.40;99.90;;;;;;5005952;28;20555;-78
2022/07/12 03:17:21;;;;;;;3.93;3.63;;;20.40;99.90;;;;;;5010917;28;20181;-78
2022/07/12 03:19:46;;;;;;;6.73;3.30;;;20.40;99.90;;;;;;5009464;28;20195;-77
2022/07/12 03:22:12;;;;;;;3.53;3.23;;;20.30;99.90;;;;;;5010364;28;20195;-77
2022/07/12 03:24:38;;;;;;;10.00;3.63;;;20.30;99.90;;;;;;5009676;28;20231;-79
2022/07/12 03:27:04;;;;;;;3.63;3.33;;;20.30;99.90;;;;;;5011595;28;20180;-79
2022/07/12 03:29:29;;;;;;;3.60;3.30;;;20.30;99.90;;;;;;5011840;28;20208;-78
2022/07/12 03:31:55;;;;;;;3.83;3.47;;;20.20;99.90;;;;;;5014973;28;20940;-73
2022/07/12 03:34:20;;;;;;;4.07;3.77;;;20.20;99.90;;;;;;5015875;28;20201;-73
2022/07/12 03:36:46;;;;;;;3.50;3.20;;;20.20;99.90;;;;;;5016528;28;20681;-73
2022/07/12 03:39:11;;;;;;;3.63;3.30;;;20.20;99.90;;;;;;5007868;28;20193;-75
2022/07/12 03:41:37;;;;;;;5.03;3.73;;;20.20;99.90;;;;;;5014513;28;20765;-73
2022/07/12 03:44:03;;;;;;;3.97;3.50;;;20.20;99.90;;;;;;5011356;28;20196;-73
2022/07/12 03:46:29;;;;;;;4.53;3.90;;;20.20;99.90;;;;;;5012424;28;20275;-75
2022/07/12 03:48:55;;;;;;;3.70;3.40;;;20.10;99.90;;;;;;5013170;28;20566;-74
2022/07/12 03:51:20;;;;;;;4.93;3.60;;;20.10;99.90;;;;;;5014283;28;20225;-73
2022/07/12 03:53:46;;;;;;;4.17;3.47;;;20.10;99.90;;;;;;5013650;28;20214;-73
2022/07/12 03:57:13;;;;;;;3.47;3.00;;;20.00;99.90;;;;;;4992388;28;20185;-73
2022/07/12 03:58:57;;;;;;;4.13;3.53;;;20.00;99.90;;;;;;5011631;28;20185;-73
2022/07/12 04:01:22;;;;;;;4.13;3.83;;;19.90;99.90;;;;;;5011206;28;20431;-73
2022/07/12 04:03:48;;;;;;;3.83;3.40;;;19.90;99.90;;;;;;4997860;28;20216;-74
2022/07/12 04:06:13;;;;;;;6.90;3.47;;;19.90;99.90;;;;;;5010932;28;20259;-75
2022/07/12 04:08:39;;;;;;;4.60;3.27;;;19.90;99.90;;;;;;5014683;28;20204;-75
2022/07/12 04:11:05;;;;;;;3.97;3.67;;;19.90;99.90;;;;;;5009615;28;20182;-75
2022/07/12 04:13:31;;;;;;;4.47;4.07;;;19.90;99.90;;;;;;5015134;28;20207;-74
2022/07/12 04:15:58;;;;;;;3.60;3.30;;;19.90;99.90;;;;;;5009199;28;20519;-74
2022/07/12 04:18:24;;;;;;;4.37;3.97;;;19.90;99.90;;;;;;5014134;28;20520;-74
2022/07/12 04:20:49;;;;;;;3.83;3.37;;;19.90;99.90;;;;;;5012425;28;20912;-73
2022/07/12 04:23:15;;;;;;;3.87;3.50;;;19.90;99.90;;;;;;5011482;28;20200;-73
2022/07/12 04:25:41;;;;;;;3.97;3.67;;;19.90;99.90;;;;;;5002329;28;20209;-73
2022/07/12 04:28:06;;;;;;;3.80;3.50;;;19.90;99.90;;;;;;5012291;28;20200;-73
2022/07/12 04:30:32;;;;;;;5.57;3.90;;;19.80;99.90;;;;;;5009842;28;20185;-73
2022/07/12 04:32:57;;;;;;;4.10;3.20;;;19.80;99.90;;;;;;5015468;28;20319;-74
2022/07/12 04:35:23;;;;;;;4.23;3.83;;;19.80;99.90;;;;;;5014692;28;20284;-74
2022/07/12 04:37:49;;;;;;;3.73;3.40;;;19.80;99.90;;;;;;5010460;28;20216;-74
2022/07/12 04:40:15;;;;;;;3.70;3.40;;;19.80;99.90;;;;;;5008708;28;20635;-74
2022/07/12 04:42:40;;;;;;;4.67;4.23;;;19.80;99.90;;;;;;5016938;28;20441;-74
2022/07/12 04:45:06;;;;;;;4.07;3.67;;;19.80;99.90;;;;;;5013554;28;20222;-74
2022/07/12 04:47:36;;;;;;;4.10;3.70;;;19.70;99.90;;;;;;5016404;28;20188;-74
2022/07/12 04:50:07;;;;;;;3.70;3.17;;;19.80;99.90;;;;;;5009470;28;20712;-74
2022/07/12 04:52:33;;;;;;;4.00;3.70;;;19.70;99.90;;;;;;5009633;28;20436;-73
2022/07/12 04:54:58;;;;;;;4.00;3.70;;;19.80;99.90;;;;;;5010931;28;20501;-74
2022/07/12 04:57:24;;;;;;;3.90;3.60;;;19.80;99.90;;;;;;5015001;28;20432;-74
2022/07/12 04:59:50;;;;;;;4.60;3.43;;;19.80;99.90;;;;;;5012226;28;20764;-74
2022/07/12 05:02:15;;;;;;;4.00;3.60;;;19.80;99.90;;;;;;5012797;28;20179;-73
2022/07/12 05:04:41;;;;;;;4.03;3.63;;;19.80;99.90;;;;;;5009297;28;20339;-74
2022/07/12 05:07:07;;;;;;;4.07;3.67;;;19.80;99.90;;;;;;5011994;28;20565;-74
2022/07/12 05:09:33;;;;;;;3.80;3.50;;;19.80;99.90;;;;;;5010644;28;20463;-74
2022/07/12 05:11:58;;;;;;;6.27;4.20;;;19.80;99.90;;;;;;5013072;28;20193;-74
2022/07/12 05:14:24;;;;;;;5.60;4.70;;;19.80;99.90;;;;;;5009570;28;20212;-74
2022/07/12 05:16:49;;;;;;;4.70;4.20;;;19.80;99.90;;;;;;5015190;28;20185;-74
2022/07/12 05:19:15;;;;;;;5.43;4.60;;;19.80;99.90;;;;;;5006999;28;20237;-74
2022/07/12 05:21:42;;;;;;;3.37;3.07;;;19.80;99.90;;;;;;5008856;28;20661;-74
2022/07/12 05:24:08;;;;;;;3.50;3.20;;;19.90;99.90;;;;;;5013739;28;20440;-73
2022/07/12 05:26:33;;;;;;;3.70;3.40;;;19.90;99.90;;;;;;5016205;28;20990;-74
2022/07/12 05:28:59;;;;;;;5.20;3.40;;;19.90;99.90;;;;;;5012486;28;20791;-74
2022/07/12 05:31:25;;;;;;;3.63;3.33;;;20.00;99.90;;;;;;5006470;28;20184;-74
2022/07/12 05:33:50;;;;;;;7.50;3.50;;;20.00;99.90;;;;;;5008180;28;20196;-75
2022/07/12 05:36:16;;;;;;;5.33;3.30;;;20.10;99.90;;;;;;5015306;28;20263;-74
2022/07/12 05:38:42;;;;;;;4.17;3.40;;;20.10;99.90;;;;;;5009185;28;20185;-73
2022/07/12 05:41:07;;;;;;;4.50;3.50;;;20.10;99.90;;;;;;5008811;28;20259;-73
2022/07/12 05:43:33;;;;;;;3.57;3.27;;;20.10;99.90;;;;;;5013087;28;20609;-73
2022/07/12 05:45:59;;;;;;;3.83;3.43;;;20.20;99.90;;;;;;4993782;28;20196;-73
2022/07/12 05:48:24;;;;;;;5.80;4.53;;;20.20;99.90;;;;;;5010803;28;20209;-74
2022/07/12 05:50:50;;;;;;;4.83;3.50;;;20.20;99.90;;;;;;5009912;28;20196;-74
2022/07/12 05:53:21;;;;;;;10.90;5.77;;;20.20;99.90;;;;;;5010845;28;20641;-75
2022/07/12 05:55:47;;;;;;;3.67;3.27;;;20.30;99.90;;;;;;5013581;28;20204;-73
2022/07/12 05:58:12;;;;;;;4.70;4.30;;;20.30;99.90;;;;;;4997209;28;20474;-74
2022/07/12 06:00:38;;;;;;;3.93;3.23;;;20.40;99.90;;;;;;5008580;28;20446;-74
2022/07/12 06:03:04;;;;;;;11.30;4.30;;;20.40;99.90;;;;;;5016898;28;20240;-73
2022/07/12 06:05:29;;;;;;;6.87;3.37;;;20.40;99.90;;;;;;5008876;28;20559;-73
2022/07/12 06:07:55;;;;;;;5.10;3.07;;;20.50;99.90;;;;;;5007516;28;20231;-74
2022/07/12 06:10:20;;;;;;;6.00;4.27;;;20.50;99.90;;;;;;5010181;28;20591;-75
2022/07/12 06:12:51;;;;;;;3.80;3.50;;;20.50;99.90;;;;;;5011129;28;20560;-75
2022/07/12 06:15:17;;;;;;;4.17;3.77;;;20.60;99.90;;;;;;5009249;28;20192;-75
2022/07/12 06:17:43;;;;;;;3.70;3.33;;;20.70;99.90;;;;;;5009285;28;21677;-74
2022/07/12 06:20:09;;;;;;;5.50;5.00;;;20.70;99.90;;;;;;5010447;28;20196;-74
2022/07/12 06:22:35;;;;;;;4.77;4.37;;;20.70;99.90;;;;;;5012122;28;20282;-74
2022/07/12 06:25:00;;;;;;;4.20;2.80;;;20.80;99.90;;;;;;5012508;28;20526;-74
2022/07/12 06:27:26;;;;;;;3.80;3.20;;;20.90;99.90;;;;;;5005321;28;20191;-74
2022/07/12 06:29:52;;;;;;;10.77;5.30;;;20.90;99.90;;;;;;5006610;28;20576;-74
2022/07/12 06:32:18;;;;;;;7.17;6.43;;;21.00;99.90;;;;;;5012023;28;20430;-75
2022/07/12 06:34:44;;;;;;;3.73;3.20;;;21.00;99.90;;;;;;4991077;28;20233;-74
2022/07/12 06:37:10;;;;;;;3.57;3.27;;;21.10;99.90;;;;;;5008077;28;20522;-75
2022/07/12 06:39:36;;;;;;;3.30;3.00;;;21.10;99.90;;;;;;5005656;28;20734;-75
2022/07/12 06:42:05;;;;;;;4.30;2.53;;;21.20;99.90;;;;;;5010315;28;20177;-75
2022/07/12 06:44:32;;;;;;;17.87;16.03;;;21.20;99.90;;;;;;5008785;28;20460;-74
2022/07/12 06:46:58;;;;;;;6.03;3.40;;;21.20;99.90;;;;;;5013514;28;20505;-75
2022/07/12 06:49:25;;;;;;;3.40;3.10;;;21.30;99.90;;;;;;5009034;28;21019;-74
2022/07/12 06:51:51;;;;;;;4.80;4.20;;;21.40;99.90;;;;;;5009551;28;20496;-75
2022/07/12 06:54:17;;;;;;;3.47;2.77;;;21.40;99.90;;;;;;5011801;28;20913;-74
2022/07/12 06:56:43;;;;;;;2.63;2.30;;;21.50;99.90;;;;;;5011559;28;20502;-73
2022/07/12 06:59:11;;;;;;;10.43;9.53;;;21.60;99.90;;;;;;5008626;28;20948;-74
2022/07/12 07:01:37;;;;;;;3.00;2.70;;;21.60;99.90;;;;;;5012776;28;20431;-74
2022/07/12 07:04:04;;;;;;;3.03;2.73;;;21.70;99.90;;;;;;5008712;28;21427;-74
2022/07/12 07:06:29;;;;;;;7.13;5.20;;;21.80;99.90;;;;;;5014675;28;21183;-74
2022/07/12 07:08:55;;;;;;;3.40;3.10;;;21.80;99.90;;;;;;5012172;28;20545;-74
2022/07/12 07:11:20;;;;;;;4.63;2.80;;;21.80;99.90;;;;;;5012914;28;20181;-74
2022/07/12 07:13:46;;;;;;;2.80;2.50;;;22.00;99.90;;;;;;5015074;28;20656;-74
2022/07/12 07:16:13;;;;;;;2.77;2.53;;;22.00;99.90;;;;;;5013876;28;20237;-74
2022/07/12 07:18:40;;;;;;;4.03;2.73;;;22.10;99.90;;;;;;5011798;28;20188;-74
2022/07/12 07:21:06;;;;;;;2.77;2.50;;;22.10;99.90;;;;;;5017076;28;20466;-74
2022/07/12 07:23:32;;;;;;;2.90;2.50;;;22.20;99.90;;;;;;4999342;28;20458;-74
2022/07/12 07:25:58;;;;;;;5.97;2.50;;;22.20;99.90;;;;;;5012191;28;20432;-74
2022/07/12 07:28:23;;;;;;;2.77;2.37;;;22.30;99.90;;;;;;5011536;28;20744;-74
2022/07/12 07:30:51;;;;;;;6.03;5.43;;;22.40;99.90;;;;;;5009914;28;20189;-74
2022/07/12 07:33:18;;;;;;;4.20;3.10;;;22.40;99.90;;;;;;5011357;28;20195;-73
2022/07/12 07:35:43;;;;;;;4.33;2.87;;;22.50;99.90;;;;;;5020082;28;20441;-74
2022/07/12 07:38:10;;;;;;;5.13;3.03;;;22.50;99.20;;;;;;5012883;28;20564;-74
2022/07/12 07:40:36;;;;;;;3.20;2.90;;;22.50;99.00;;;;;;5011605;28;20275;-73
2022/07/12 07:43:02;;;;;;;3.33;3.03;;;22.50;99.10;;;;;;5016906;28;20888;-74
2022/07/12 07:45:27;;;;;;;5.73;4.80;;;22.50;98.60;;;;;;5016475;28;20180;-74
2022/07/12 07:47:53;;;;;;;5.00;4.00;;;22.60;98.30;;;;;;5014758;28;20184;-74
2022/07/12 07:50:18;;;;;;;4.03;3.63;;;22.70;98.00;;;;;;5003880;28;20646;-74
2022/07/12 07:52:45;;;;;;;3.40;3.10;;;22.70;98.10;;;;;;5012030;28;20172;-74
2022/07/12 07:55:11;;;;;;;3.30;2.97;;;22.70;98.10;;;;;;5013968;28;20691;-74
2022/07/12 07:57:36;;;;;;;2.77;2.57;;;22.80;97.60;;;;;;5013590;28;20537;-74
2022/07/12 08:00:03;;;;;;;4.57;2.03;;;22.90;97.60;;;;;;5012313;28;20177;-74
2022/07/12 08:02:29;;;;;;;2.40;2.20;;;22.90;96.70;;;;;;5013378;28;20189;-74
2022/07/12 08:04:54;;;;;;;2.30;2.10;;;23.00;96.10;;;;;;5041312;22;20522;-72
2022/07/12 08:07:20;;;;;;;2.50;2.30;;;23.00;96.10;;;;;;5018906;28;20580;-72
2022/07/12 08:09:45;;;;;;;3.40;2.07;;;23.00;96.10;;;;;;5018938;28;20224;-72
2022/07/12 08:12:11;;;;;;;2.07;1.80;;;23.10;96.30;;;;;;5021267;28;20645;-71
2022/07/12 08:14:39;;;;;;;3.93;3.13;;;23.10;96.30;;;;;;5012996;28;20231;-72
2022/07/12 08:17:08;;;;;;;4.20;2.30;;;23.10;96.10;;;;;;4996352;28;20219;-71
2022/07/12 08:19:34;;;;;;;4.73;4.30;;;23.10;95.90;;;;;;5019577;28;20423;-72
2022/07/12 08:22:00;;;;;;;2.50;2.20;;;23.20;95.50;;;;;;5020881;28;20774;-72
2022/07/12 08:24:25;;;;;;;2.50;2.30;;;23.30;94.00;;;;;;5019892;28;20191;-72
2022/07/12 08:26:54;;;;;;;3.67;3.20;;;23.40;93.20;;;;;;5023014;28;20450;-73
2022/07/12 08:29:22;;;;;;;2.13;1.93;;;23.50;93.10;;;;;;5016346;28;20217;-72
2022/07/12 08:31:48;;;;;;;2.00;1.80;;;23.40;93.30;;;;;;5014963;28;20945;-72
2022/07/12 08:34:13;;;;;;;2.20;2.00;;;23.50;92.90;;;;;;5014951;28;20447;-71
2022/07/12 08:36:39;;;;;;;3.60;1.90;;;23.50;92.70;;;;;;5020458;28;20731;-72
2022/07/12 08:39:04;;;;;;;1.90;1.70;;;23.60;92.60;;;;;;5002539;28;20470;-71
2022/07/12 08:41:30;;;;;;;2.10;1.90;;;23.60;92.60;;;;;;5017241;28;20189;-72
2022/07/12 08:44:00;;;;;;;6.30;2.00;;;23.70;92.10;;;;;;5005794;28;20667;-72
2022/07/12 08:46:26;;;;;;;2.63;1.90;;;23.80;92.10;;;;;;5020208;28;20197;-72
2022/07/12 08:48:54;;;;;;;2.30;2.00;;;23.80;91.70;;;;;;5006341;28;20463;-72
2022/07/12 08:51:21;;;;;;;2.20;2.00;;;23.90;91.00;;;;;;5018448;28;20499;-73
2022/07/12 08:53:49;;;;;;;2.00;1.80;;;23.90;90.50;;;;;;5016997;28;20869;-73
2022/07/12 08:56:35;;;;;;;2.57;1.90;;;23.90;90.20;;;;;;5004091;28;20456;-72
2022/07/12 08:59:16;;;;;;;4.73;1.90;;;24.00;90.10;;;;;;5016454;28;20430;-73
2022/07/12 09:01:52;;;;;;;2.20;2.00;;;24.00;89.50;;;;;;5002711;28;20455;-71
2022/07/12 09:04:20;;;;;;;2.13;1.93;;;24.10;89.00;;;;;;5014971;28;20953;-71
2022/07/12 09:06:47;;;;;;;2.77;2.17;;;24.10;88.20;;;;;;5014997;28;20474;-72
2022/07/12 09:09:27;;;;;;;2.23;2.03;;;24.10;89.20;;;;;;5015882;28;20840;-71
2022/07/12 09:11:53;;;;;;;2.20;2.00;;;24.10;88.50;;;;;;5009452;28;20531;-73
2022/07/12 09:14:20;;;;;;;2.20;2.00;;;24.10;88.70;;;;;;5015890;28;20438;-72
2022/07/12 09:17:13;;;;;;;2.07;1.97;;;24.20;86.80;;;;;;5017446;28;20282;-73
2022/07/12 09:19:39;;;;;;;1.93;1.73;;;24.30;86.30;;;;;;5018692;28;20432;-73
2022/07/12 09:22:16;;;;;;;2.10;1.90;;;24.30;87.60;;;;;;5003884;28;20535;-73
2022/07/12 09:24:45;;;;;;;2.30;2.10;;;24.40;87.20;;;;;;5017252;28;20431;-71
2022/07/12 09:27:27;;;;;;;2.10;1.90;;;24.50;87.10;;;;;;5018634;28;21050;-73
2022/07/12 09:29:53;;;;;;;2.17;1.83;;;24.60;86.30;;;;;;5013178;28;20507;-73
2022/07/12 09:37:49;;;;;;;2.37;2.13;;;24.60;86.80;;;;;;5019369;28;20473;-72
2022/07/12 09:40:15;;;;;;;7.47;2.30;;;24.60;86.60;;;;;;5011573;28;20940;-72
2022/07/12 09:42:41;;;;;;;2.73;2.53;;;24.50;86.70;;;;;;5014537;28;20746;-72
2022/07/12 09:45:13;;;;;;;2.20;2.00;;;24.50;86.70;;;;;;5011364;28;20442;-72
2022/07/12 09:47:39;;;;;;;2.40;2.20;;;24.60;87.20;;;;;;5015625;28;20803;-72
2022/07/12 09:50:09;;;;;;;1.97;1.80;;;24.60;86.70;;;;;;5018435;28;20474;-72
2022/07/12 09:52:38;;;;;;;2.13;1.93;;;24.70;86.50;;;;;;5014282;28;20423;-72
2022/07/12 09:55:09;;;;;;;2.57;2.03;;;24.70;86.00;;;;;;5018680;28;20416;-72
2022/07/12 09:57:39;;;;;;;2.53;2.00;;;24.80;85.60;;;;;;5010533;28;20736;-73
2022/07/12 10:00:11;;;;;;;2.00;1.80;;;24.90;85.70;;;;;;5013167;28;20418;-73
2022/07/12 10:02:40;;;;;;;2.17;1.97;;;24.90;86.50;;;;;;5017141;28;20419;-73
2022/07/12 10:05:08;;;;;;;2.00;1.80;;;24.90;86.90;;;;;;5011816;28;20470;-73
2022/07/12 10:07:37;;;;;;;2.40;1.90;;;25.00;86.10;;;;;;5002519;28;20541;-72
2022/07/12 10:10:03;;;;;;;2.23;2.03;;;25.10;85.00;;;;;;5015085;28;20479;-73
2022/07/12 10:12:29;;;;;;;2.47;2.07;;;25.10;85.50;;;;;;5012906;28;20434;-72
2022/07/12 10:15:08;;;;;;;2.23;1.80;;;25.10;85.50;;;;;;5014334;28;20427;-73
2022/07/12 10:17:35;;;;;;;2.40;1.90;;;25.20;83.20;;;;;;5015436;28;20196;-73
2022/07/12 10:20:18;;;;;;;3.13;2.20;;;25.20;83.20;;;;;;5018134;28;20432;-73
2022/07/12 10:22:44;;;;;;;3.97;3.67;;;25.20;84.20;;;;;;5017343;28;20440;-73
2022/07/12 10:25:30;;;;;;;2.30;2.10;;;25.20;83.30;;;;;;5013800;28;20695;-72
2022/07/12 10:27:56;;;;;;;3.90;2.30;;;25.20;81.70;;;;;;5013035;28;21405;-72
2022/07/12 10:30:23;;;;;;;3.57;2.50;;;25.30;82.60;;;;;;5014083;28;20941;-73
2022/07/12 10:32:56;;;;;;;2.30;2.10;;;25.40;82.70;;;;;;5008823;28;20447;-73
2022/07/12 10:35:32;;;;;;;2.20;2.00;;;25.40;81.80;;;;;;5018398;28;20516;-73
2022/07/12 10:38:13;;;;;;;2.53;2.33;;;25.50;81.70;;;;;;5016698;28;20474;-73
2022/07/12 10:40:40;;;;;;;2.67;2.40;;;25.40;82.60;;;;;;5009671;28;20730;-73
2022/07/12 10:43:06;;;;;;;2.97;2.77;;;25.50;82.10;;;;;;5013905;28;20430;-71
2022/07/12 10:45:41;;;;;;;2.80;2.47;;;25.40;82.90;;;;;;5013362;28;20999;-72
2022/07/12 10:48:20;;;;;;;2.50;2.20;;;25.40;82.60;;;;;;5013224;28;20269;-71
2022/07/12 10:50:55;;;;;;;1.97;1.77;;;25.60;83.10;;;;;;5011268;28;20445;-72
2022/07/12 10:53:33;;;;;;;2.97;2.77;;;25.70;82.40;;;;;;5002186;28;20443;-73
2022/07/12 10:56:04;;;;;;;2.30;2.10;;;25.80;82.60;;;;;;5016999;28;21003;-72
2022/07/12 10:58:40;;;;;;;3.67;2.10;;;26.00;81.20;;;;;;5013440;28;20898;-72
2022/07/12 11:01:08;;;;;;;2.60;1.97;;;26.00;80.70;;;;;;5001736;28;20441;-73
2022/07/12 11:03:45;;;;;;;2.37;2.07;;;26.10;79.60;;;;;;5015385;28;20438;-73
2022/07/12 11:06:13;;;;;;;2.27;2.07;;;26.20;79.10;;;;;;5003484;28;20561;-73
2022/07/12 11:08:51;;;;;;;3.33;2.00;;;26.20;79.30;;;;;;5011898;28;20463;-73
2022/07/12 11:11:17;;;;;;;1.83;1.73;;;26.40;78.20;;;;;;5012262;28;20427;-73
2022/07/12 11:13:51;;;;;;;2.40;2.20;;;26.40;77.80;;;;;;4999143;28;20806;-72
2022/07/12 11:16:24;;;;;;;2.17;1.97;;;26.40;77.20;;;;;;5014592;28;20615;-73
2022/07/12 11:18:51;;;;;;;3.17;1.90;;;26.60;76.70;;;;;;5015028;28;20960;-72
2022/07/12 11:21:20;;;;;;;2.20;2.00;;;26.60;75.00;;;;;;5014056;28;20542;-73
2022/07/12 11:23:46;;;;;;;2.20;2.00;;;26.70;74.20;;;;;;5014687;28;20427;-72
2022/07/12 11:26:12;;;;;;;2.50;2.30;;;26.70;74.00;;;;;;5016249;28;20455;-72
2022/07/12 11:28:39;;;;;;;2.37;2.17;;;26.80;75.10;;;;;;5015427;28;20639;-73
2022/07/12 11:31:21;;;;;;;5.63;2.30;;;26.90;75.20;;;;;;5018918;28;20484;-72
2022/07/12 11:33:48;;;;;;;2.20;2.00;;;27.00;75.40;;;;;;5013854;28;20770;-71
2022/07/12 11:36:18;;;;;;;2.30;2.10;;;27.10;75.30;;;;;;5017731;28;20454;-72
2022/07/12 11:38:46;;;;;;;4.43;2.17;;;27.10;74.50;;;;;;5015320;28;20432;-72
2022/07/12 11:41:15;;;;;;;2.30;2.10;;;27.30;73.70;;;;;;5013501;28;20497;-72
2022/07/12 11:43:44;;;;;;;2.20;2.00;;;27.40;73.00;;;;;;5001769;28;20442;-73
2022/07/12 11:46:13;;;;;;;2.83;2.03;;;27.60;71.40;;;;;;5010724;28;20879;-72
2022/07/12 11:48:42;;;;;;;2.10;1.90;;;27.80;71.10;;;;;;5018682;28;20465;-74
2022/07/12 11:51:13;;;;;;;2.60;2.20;;;28.00;70.60;;;;;;5016559;28;21238;-73
2022/07/12 11:53:51;;;;;;;2.30;2.10;;;28.30;69.50;;;;;;5018862;28;21122;-73
2022/07/12 11:56:17;;;;;;;2.10;1.90;;;28.50;68.70;;;;;;5002972;28;20487;-73
2022/07/12 11:58:54;;;;;;;2.20;2.00;;;28.70;68.10;;;;;;5017496;28;20427;-72
2022/07/12 12:01:20;;;;;;;4.30;2.40;;;29.00;67.80;;;;;;5017364;28;20678;-72
2022/07/12 12:03:46;;;;;;;2.40;2.20;;;29.40;67.20;;;;;;5017157;28;20510;-72
2022/07/12 12:06:12;;;;;;;2.13;1.93;;;29.90;64.80;;;;;;4999115;28;20290;-72
2022/07/12 12:08:40;;;;;;;2.77;2.20;;;30.30;62.10;;;;;;5014250;28;20478;-71
2022/07/12 12:11:05;;;;;;;2.17;1.97;;;31.10;60.30;;;;;;4998413;28;20556;-72
2022/07/12 12:13:31;;;;;;;2.00;1.80;;;33.00;58.10;;;;;;5017499;28;20447;-72
2022/07/12 12:15:58;;;;;;;3.60;1.93;;;34.60;55.30;;;;;;5002811;28;20217;-72
2022/07/12 12:18:38;;;;;;;3.70;2.80;;;36.90;53.70;;;;;;5016783;28;20572;-72
2022/07/12 12:21:06;;;;;;;3.60;2.57;;;38.70;50.00;;;;;;5016249;28;20402;-73
2022/07/12 12:23:36;;;;;;;2.63;2.43;;;40.10;48.00;;;;;;5003910;28;20697;-71
2022/07/12 12:26:30;;;;;;;3.20;2.23;;;41.20;45.10;;;;;;5005455;28;20953;-71
2022/07/12 12:28:57;;;;;;;2.57;2.37;;;42.40;41.80;;;;;;5014065;28;20483;-72
2022/07/12 12:31:23;;;;;;;2.10;1.90;;;42.90;40.30;;;;;;4998794;28;20440;-71
2022/07/12 12:33:56;;;;;;;5.27;4.87;;;43.50;39.40;;;;;;5015060;28;20427;-72
2022/07/12 12:36:23;;;;;;;2.17;2.00;;;43.90;38.00;;;;;;5015806;28;20465;-72
2022/07/12 12:38:56;;;;;;;2.13;2.03;;;44.10;36.90;;;;;;5010654;22;21048;-73
2022/07/12 12:41:27;;;;;;;2.10;2.00;;;44.30;36.10;;;;;;5000550;28;20440;-72
2022/07/12 12:43:57;;;;;;;2.27;2.07;;;44.30;35.80;;;;;;4985017;28;20431;-72
2022/07/12 12:47:30;;;;;;;2.10;2.00;;;44.10;35.20;;;;;;4980604;28;20471;-72
2022/07/12 12:49:49;;;;;;;4.67;2.03;;;44.20;35.00;;;;;;4951015;28;20476;-72
2022/07/12 12:52:16;;;;;;;2.63;1.90;;;44.50;34.80;;;;;;4981940;28;20446;-72
2022/07/12 12:54:41;;;;;;;3.87;2.10;;;44.70;34.50;;;;;;4979077;28;20479;-75
2022/07/12 12:57:08;;;;;;;2.40;2.20;;;44.60;33.60;;;;;;4978661;28;21427;-72
2022/07/12 12:59:35;;;;;;;2.50;1.83;;;44.10;34.20;;;;;;4961567;28;20268;-72